Time;durP1;ratioP1;P1;durP2;ratioP2;P2;SDS_P1;SDS_P2;PMS_P1;PMS_P2;Temp;Humidity;BMP_temperature;BMP_pressure;BME280_temperature;BME280_humidity;BME280_pressure;Samples;Min_cycle;Max_cycle;Signal;HPM_P1;HPM_P2
2022/03/22 00:01:24;;;;;;;50.63;26.48;;;;;;;;;;5012209;28;20046;-75
2022/03/22 00:03:50;;;;;;;49.22;26.50;;;;;;;;;;4995391;28;20525;-75
2022/03/22 00:06:18;;;;;;;51.35;25.67;;;;;;;;;;5011648;28;20075;-75
2022/03/22 00:08:44;;;;;;;48.75;25.55;;;;;;;;;;5011897;28;20580;-75
2022/03/22 00:11:11;;;;;;;46.92;25.80;;;;;;;;;;5011860;28;20041;-75
2022/03/22 00:13:37;;;;;;;50.20;25.92;;;;;;;;;;5011854;28;20128;-75
2022/03/22 00:16:04;;;;;;;50.45;25.38;;;;;;;;;;4995417;28;20049;-75
2022/03/22 00:18:30;;;;;;;48.72;25.00;;;;;;;;;;5029753;28;20091;-77
2022/03/22 00:20:56;;;;;;;52.50;26.08;;;;;;;;;;4993070;28;20033;-77
2022/03/22 00:23:23;;;;;;;49.65;26.25;;;;;;;;;;5011818;28;20093;-76
2022/03/22 00:25:49;;;;;;;52.17;26.35;;;;;;;;;;4995596;28;20056;-76
2022/03/22 00:28:15;;;;;;;51.03;26.33;;;;;;;;;;5011375;28;20049;-75
2022/03/22 00:30:42;;;;;;;51.80;26.63;;;;;;;;;;5028503;28;20071;-75
2022/03/22 00:33:08;;;;;;;50.00;26.17;;;;;;;;;;5011174;28;20049;-75
2022/03/22 00:35:38;;;;;;;51.55;25.42;;;;;;;;;;5010689;28;20406;-75
2022/03/22 00:38:06;;;;;;;50.50;25.45;;;;;;;;;;4995311;28;20086;-75
2022/03/22 00:40:32;;;;;;;52.90;26.00;;;;;;;;;;5011357;28;20426;-76
2022/03/22 00:42:58;;;;;;;42.92;23.13;;;;;;;;;;5011494;28;20060;-76
2022/03/22 00:45:28;;;;;;;43.80;23.10;;;;;;;;;;5011549;28;20864;-76
2022/03/22 00:47:54;;;;;;;54.92;26.60;;;;;;;;;;5029065;28;20068;-76
2022/03/22 00:50:22;;;;;;;48.70;25.52;;;;;;;;;;4994753;28;20052;-76
2022/03/22 00:52:48;;;;;;;57.42;28.05;;;;;;;;;;5010482;28;20131;-77
2022/03/22 00:55:14;;;;;;;57.38;27.05;;;;;;;;;;5011085;28;20041;-76
2022/03/22 00:57:42;;;;;;;53.58;27.67;;;;;;;;;;4994855;28;20042;-76
2022/03/22 01:00:10;;;;;;;48.45;25.48;;;;;;;;;;5011938;28;20482;-76
2022/03/22 01:02:40;;;;;;;51.85;26.02;;;;;;;;;;5029314;28;20476;-76
2022/03/22 01:05:07;;;;;;;57.58;28.48;;;;;;;;;;5011939;28;20098;-76
2022/03/22 01:07:34;;;;;;;55.33;27.00;;;;;;;;;;5010588;28;20037;-76
2022/03/22 01:10:05;;;;;;;58.72;27.52;;;;;;;;;;5010780;28;20054;-77
2022/03/22 01:12:36;;;;;;;50.95;27.25;;;;;;;;;;5010847;28;20085;-77
2022/03/22 01:15:09;;;;;;;57.72;28.23;;;;;;;;;;5011465;28;20041;-76
2022/03/22 01:17:36;;;;;;;57.28;29.17;;;;;;;;;;5010686;28;20053;-77
2022/03/22 01:20:05;;;;;;;63.92;29.17;;;;;;;;;;5011014;28;20037;-77
2022/03/22 01:22:31;;;;;;;59.33;28.30;;;;;;;;;;5028397;28;20578;-77
2022/03/22 01:24:57;;;;;;;60.10;28.88;;;;;;;;;;5010594;28;20048;-77
2022/03/22 01:27:23;;;;;;;55.80;28.35;;;;;;;;;;4994545;28;20510;-77
2022/03/22 01:29:50;;;;;;;59.97;29.48;;;;;;;;;;5010636;28;20042;-76
2022/03/22 01:32:16;;;;;;;58.33;28.90;;;;;;;;;;5028484;28;20073;-77
2022/03/22 01:34:42;;;;;;;57.08;29.25;;;;;;;;;;5011135;28;20041;-76
2022/03/22 01:37:09;;;;;;;58.17;28.25;;;;;;;;;;4994630;28;20033;-76
2022/03/22 01:39:35;;;;;;;55.58;28.63;;;;;;;;;;5011009;28;20490;-75
2022/03/22 01:42:01;;;;;;;52.83;28.15;;;;;;;;;;5010575;28;20029;-75
2022/03/22 01:44:28;;;;;;;55.28;28.02;;;;;;;;;;5010632;28;20033;-75
2022/03/22 01:46:58;;;;;;;51.92;28.42;;;;;;;;;;5010240;28;20049;-76
2022/03/22 01:49:24;;;;;;;52.80;28.13;;;;;;;;;;5029150;28;20490;-76
2022/03/22 01:51:52;;;;;;;57.20;28.88;;;;;;;;;;5010197;28;20041;-75
2022/03/22 01:54:19;;;;;;;56.78;28.25;;;;;;;;;;5028342;28;20171;-75
2022/03/22 01:56:45;;;;;;;54.58;27.77;;;;;;;;;;5010099;28;20057;-75
2022/03/22 01:59:11;;;;;;;52.35;27.42;;;;;;;;;;5010617;28;20042;-75
2022/03/22 02:07:07;;;;;;;56.28;27.73;;;;;;;;;;5008319;28;20046;-76
2022/03/22 02:09:34;;;;;;;54.28;28.17;;;;;;;;;;5028151;28;20041;-75
2022/03/22 02:12:00;;;;;;;54.78;28.10;;;;;;;;;;5010067;28;20037;-76
2022/03/22 02:14:27;;;;;;;54.33;27.45;;;;;;;;;;5009445;28;20041;-75
2022/03/22 02:16:53;;;;;;;51.38;26.02;;;;;;;;;;5009806;28;20125;-75
2022/03/22 02:19:19;;;;;;;50.15;26.15;;;;;;;;;;4993904;28;20044;-77
2022/03/22 02:21:46;;;;;;;53.97;27.92;;;;;;;;;;4993699;28;20085;-77
2022/03/22 02:24:13;;;;;;;56.80;28.02;;;;;;;;;;5010162;28;20036;-76
2022/03/22 02:26:39;;;;;;;55.65;27.23;;;;;;;;;;4993380;28;20045;-77
2022/03/22 02:29:05;;;;;;;52.05;28.20;;;;;;;;;;5010110;28;20495;-75
2022/03/22 02:31:32;;;;;;;52.65;28.15;;;;;;;;;;5009983;28;20057;-76
2022/03/22 02:33:59;;;;;;;57.08;27.85;;;;;;;;;;4993515;28;20098;-75
2022/03/22 02:36:25;;;;;;;54.72;27.55;;;;;;;;;;5009761;28;20041;-75
2022/03/22 02:38:51;;;;;;;53.45;28.38;;;;;;;;;;5008975;28;20038;-76
2022/03/22 02:41:25;;;;;;;50.53;27.48;;;;;;;;;;5009979;28;20041;-75
2022/03/22 02:43:52;;;;;;;57.03;29.25;;;;;;;;;;5024960;28;20080;-76
2022/03/22 02:46:19;;;;;;;55.53;28.13;;;;;;;;;;5009638;28;20041;-75
2022/03/22 02:48:45;;;;;;;55.30;29.00;;;;;;;;;;5009651;28;20490;-76
2022/03/22 02:51:13;;;;;;;49.45;26.48;;;;;;;;;;5027458;28;20042;-76
2022/03/22 02:53:40;;;;;;;61.85;30.13;;;;;;;;;;5009692;28;20045;-75
2022/03/22 02:56:06;;;;;;;60.90;29.70;;;;;;;;;;5009599;28;20045;-75
2022/03/22 02:58:33;;;;;;;49.08;26.25;;;;;;;;;;4993335;28;20033;-75
2022/03/22 03:00:59;;;;;;;54.72;26.73;;;;;;;;;;5024556;28;20033;-76
2022/03/22 03:03:26;;;;;;;54.38;27.52;;;;;;;;;;5017368;28;20049;-76
2022/03/22 03:05:52;;;;;;;46.92;24.85;;;;;;;;;;5008798;28;20041;-75
2022/03/22 03:08:18;;;;;;;51.78;26.23;;;;;;;;;;4992816;28;20046;-76
2022/03/22 03:10:45;;;;;;;42.28;22.27;;;;;;;;;;5009410;28;20045;-76
2022/03/22 03:13:12;;;;;;;50.15;25.83;;;;;;;;;;5009567;28;20404;-76
2022/03/22 03:15:38;;;;;;;43.30;22.88;;;;;;;;;;5009407;28;20602;-76
2022/03/22 03:18:05;;;;;;;50.67;24.42;;;;;;;;;;4993071;28;20037;-76
2022/03/22 03:20:31;;;;;;;50.42;25.75;;;;;;;;;;5009928;28;20145;-76
2022/03/22 03:22:57;;;;;;;49.28;25.88;;;;;;;;;;5009032;28;20037;-76
2022/03/22 03:25:23;;;;;;;51.78;25.58;;;;;;;;;;5005621;28;20476;-75
2022/03/22 03:27:50;;;;;;;52.05;27.27;;;;;;;;;;5008609;28;20086;-76
2022/03/22 03:30:16;;;;;;;51.78;27.13;;;;;;;;;;5009042;28;20037;-76
2022/03/22 03:32:43;;;;;;;43.53;23.00;;;;;;;;;;5009050;28;20129;-75
2022/03/22 03:35:09;;;;;;;51.25;27.05;;;;;;;;;;5008761;28;20049;-78
2022/03/22 03:37:36;;;;;;;51.90;25.80;;;;;;;;;;5008511;28;20042;-76
2022/03/22 03:40:06;;;;;;;53.97;28.48;;;;;;;;;;5008357;28;20037;-75
2022/03/22 03:42:32;;;;;;;55.03;28.45;;;;;;;;;;4992822;28;20545;-76
2022/03/22 03:47:43;;;;;;;56.67;27.92;;;;;;;;;;5008300;28;20049;-76
2022/03/22 03:50:09;;;;;;;58.30;29.67;;;;;;;;;;5009125;28;20449;-76
2022/03/22 03:52:37;;;;;;;51.95;25.20;;;;;;;;;;5018283;28;20041;-77
2022/03/22 03:55:06;;;;;;;56.40;28.95;;;;;;;;;;5019047;28;20390;-76
2022/03/22 03:57:33;;;;;;;59.30;28.80;;;;;;;;;;5008632;28;20394;-76
2022/03/22 03:59:59;;;;;;;56.55;26.90;;;;;;;;;;5008618;28;20059;-76
2022/03/22 04:02:26;;;;;;;53.60;27.05;;;;;;;;;;5008911;28;20041;-76
2022/03/22 04:04:52;;;;;;;59.88;28.33;;;;;;;;;;5025736;28;20064;-75
2022/03/22 04:07:19;;;;;;;58.63;29.17;;;;;;;;;;5007971;28;20409;-76
2022/03/22 04:09:45;;;;;;;55.75;28.95;;;;;;;;;;5008585;28;20463;-76
2022/03/22 04:12:14;;;;;;;58.33;29.58;;;;;;;;;;5026338;28;20142;-75
2022/03/22 04:14:41;;;;;;;56.42;29.30;;;;;;;;;;4991913;28;20158;-76
2022/03/22 04:17:08;;;;;;;60.83;29.17;;;;;;;;;;5008331;28;20048;-76
2022/03/22 04:19:35;;;;;;;64.80;29.98;;;;;;;;;;5008649;28;20413;-76
2022/03/22 04:22:04;;;;;;;59.88;30.58;;;;;;;;;;5008459;28;20497;-76
2022/03/22 04:24:31;;;;;;;55.53;28.88;;;;;;;;;;5008293;28;20050;-76
2022/03/22 04:32:41;;;;;;;59.10;30.55;;;;;;;;;;5008187;28;20398;-75
2022/03/22 04:32:42;;;;;;;60.40;30.67;;;;;;;;;;4998376;28;20044;-75
2022/03/22 04:35:12;;;;;;;63.55;29.60;;;;;;;;;;5011066;28;20045;-76
2022/03/22 04:37:38;;;;;;;59.70;29.15;;;;;;;;;;5011500;28;20486;-76
2022/03/22 04:40:04;;;;;;;57.78;29.92;;;;;;;;;;4994937;28;20045;-76
2022/03/22 04:42:31;;;;;;;58.65;30.95;;;;;;;;;;5011220;28;20045;-76
2022/03/22 04:44:57;;;;;;;61.83;31.27;;;;;;;;;;5011305;28;20065;-76
2022/03/22 04:47:24;;;;;;;61.92;31.75;;;;;;;;;;5011383;28;20034;-77
2022/03/22 04:49:50;;;;;;;60.25;29.52;;;;;;;;;;5010400;28;20029;-77
2022/03/22 04:57:45;;;;;;;67.72;31.85;;;;;;;;;;5010641;28;20037;-75
2022/03/22 05:00:12;;;;;;;64.25;31.50;;;;;;;;;;4994748;28;20073;-76
2022/03/22 05:02:38;;;;;;;58.78;30.67;;;;;;;;;;5018614;28;20034;-76
2022/03/22 05:05:05;;;;;;;60.95;30.65;;;;;;;;;;5007571;28;20488;-76
2022/03/22 05:07:31;;;;;;;55.95;29.13;;;;;;;;;;5011266;28;20394;-76
2022/03/22 05:09:57;;;;;;;61.75;30.13;;;;;;;;;;5010808;28;20036;-76
2022/03/22 05:12:23;;;;;;;63.53;30.27;;;;;;;;;;5028950;28;20445;-76
2022/03/22 05:14:50;;;;;;;59.20;30.30;;;;;;;;;;4994615;28;20044;-76
2022/03/22 05:17:21;;;;;;;64.13;30.70;;;;;;;;;;4994812;28;20045;-76
2022/03/22 05:19:50;;;;;;;60.85;31.50;;;;;;;;;;5010633;28;20038;-76
2022/03/22 05:22:16;;;;;;;66.88;33.13;;;;;;;;;;5010980;28;20041;-76
2022/03/22 05:24:42;;;;;;;61.70;31.05;;;;;;;;;;5010588;28;20069;-76
2022/03/22 05:27:08;;;;;;;63.00;31.30;;;;;;;;;;5010774;28;20125;-76
2022/03/22 05:29:35;;;;;;;61.38;30.75;;;;;;;;;;4994376;28;20154;-76
2022/03/22 05:32:01;;;;;;;65.32;31.98;;;;;;;;;;5010683;28;20041;-76
2022/03/22 05:34:27;;;;;;;58.53;30.88;;;;;;;;;;5010925;28;20041;-76
2022/03/22 05:36:53;;;;;;;59.33;31.98;;;;;;;;;;5009828;28;20046;-77
2022/03/22 05:39:19;;;;;;;63.50;32.45;;;;;;;;;;5010509;28;20394;-77
2022/03/22 05:41:45;;;;;;;65.10;32.78;;;;;;;;;;5027867;28;20117;-77
2022/03/22 05:44:13;;;;;;;68.45;31.80;;;;;;;;;;5010596;28;20041;-76
2022/03/22 05:46:40;;;;;;;57.03;29.73;;;;;;;;;;5010800;28;20509;-77
2022/03/22 05:49:08;;;;;;;49.40;26.67;;;;;;;;;;5010066;28;20050;-77
2022/03/22 05:51:35;;;;;;;56.63;27.88;;;;;;;;;;5028277;28;20049;-76
2022/03/22 05:54:01;;;;;;;61.83;28.10;;;;;;;;;;5010576;28;20509;-76
2022/03/22 05:56:27;;;;;;;56.83;29.92;;;;;;;;;;5028234;28;20065;-76
2022/03/22 05:58:53;;;;;;;61.72;30.08;;;;;;;;;;5009715;28;20086;-76
2022/03/22 06:01:20;;;;;;;61.28;30.48;;;;;;;;;;5010442;28;20056;-76
2022/03/22 06:03:46;;;;;;;63.20;31.25;;;;;;;;;;5044096;28;20052;-76
2022/03/22 06:06:12;;;;;;;58.17;31.83;;;;;;;;;;5087162;28;20056;-75
2022/03/22 06:08:39;;;;;;;55.50;28.80;;;;;;;;;;5087257;28;20112;-76
2022/03/22 06:11:05;;;;;;;54.53;27.90;;;;;;;;;;5087394;28;20036;-77
2022/03/22 06:13:31;;;;;;;57.50;31.55;;;;;;;;;;5087331;28;20395;-78
2022/03/22 06:15:58;;;;;;;57.42;30.65;;;;;;;;;;5089243;28;20059;-78
2022/03/22 06:18:24;;;;;;;68.90;31.73;;;;;;;;;;5089969;28;20658;-77
2022/03/22 06:20:50;;;;;;;57.88;30.77;;;;;;;;;;5089273;28;20422;-76
2022/03/22 06:23:17;;;;;;;59.47;30.77;;;;;;;;;;5087890;28;20043;-77
2022/03/22 06:25:44;;;;;;;59.22;30.77;;;;;;;;;;5085915;28;20036;-76
2022/03/22 06:28:12;;;;;;;55.33;28.95;;;;;;;;;;5070841;28;20043;-76
2022/03/22 06:30:39;;;;;;;55.47;30.38;;;;;;;;;;5075034;28;20032;-76
2022/03/22 06:33:10;;;;;;;51.53;29.10;;;;;;;;;;5070752;28;20036;-76
2022/03/22 06:35:36;;;;;;;53.30;29.48;;;;;;;;;;5089543;28;20055;-76
2022/03/22 06:38:03;;;;;;;51.95;28.48;;;;;;;;;;5088168;28;20385;-76
2022/03/22 06:40:30;;;;;;;52.22;27.63;;;;;;;;;;5088465;28;20043;-77
2022/03/22 06:42:58;;;;;;;48.30;28.60;;;;;;;;;;5086337;28;20032;-76
2022/03/22 06:45:24;;;;;;;50.38;27.90;;;;;;;;;;5086334;28;20047;-76
2022/03/22 06:47:51;;;;;;;44.95;26.95;;;;;;;;;;5075128;28;20048;-76
2022/03/22 06:50:18;;;;;;;47.97;27.25;;;;;;;;;;5084514;28;20594;-76
2022/03/22 06:52:44;;;;;;;49.70;28.15;;;;;;;;;;5085868;28;20047;-76
2022/03/22 06:55:11;;;;;;;47.63;27.45;;;;;;;;;;5086521;28;20443;-76
2022/03/22 06:57:38;;;;;;;47.10;27.00;;;;;;;;;;5072975;28;20039;-76
2022/03/22 07:00:05;;;;;;;42.75;26.73;;;;;;;;;;5071576;28;20115;-76
2022/03/22 07:02:32;;;;;;;46.28;26.83;;;;;;;;;;5069205;28;20501;-76
2022/03/22 07:04:58;;;;;;;41.72;26.05;;;;;;;;;;4993816;28;20058;-75
2022/03/22 07:07:24;;;;;;;44.80;27.35;;;;;;;;;;4970387;28;20046;-75
2022/03/22 07:09:50;;;;;;;42.10;25.42;;;;;;;;;;4987320;28;20513;-75
2022/03/22 07:12:16;;;;;;;41.97;26.27;;;;;;;;;;4986714;28;20038;-76
2022/03/22 07:14:42;;;;;;;44.38;25.98;;;;;;;;;;4970283;28;20047;-76
2022/03/22 07:17:09;;;;;;;41.97;25.63;;;;;;;;;;4987881;28;20061;-76
2022/03/22 07:19:35;;;;;;;39.95;25.60;;;;;;;;;;4986627;28;20497;-78
2022/03/22 07:22:01;;;;;;;41.45;26.65;;;;;;;;;;4986452;28;20403;-76
2022/03/22 07:24:27;;;;;;;38.78;25.27;;;;;;;;;;4986372;28;20039;-76
2022/03/22 07:26:54;;;;;;;39.85;25.30;;;;;;;;;;4986127;28;20499;-76
2022/03/22 07:29:21;;;;;;;40.83;26.52;;;;;;;;;;4986407;28;20049;-77
2022/03/22 07:31:47;;;;;;;39.55;25.60;;;;;;;;;;4985933;28;20038;-77
2022/03/22 07:34:17;;;;;;;41.15;26.95;;;;;;;;;;4986432;28;20046;-77
2022/03/22 07:36:44;;;;;;;39.70;26.20;;;;;;;;;;4986218;28;20516;-77
2022/03/22 07:39:11;;;;;;;41.17;26.23;;;;;;;;;;4986186;28;20040;-78
2022/03/22 07:41:38;;;;;;;42.58;27.00;;;;;;;;;;4986377;28;20480;-78
2022/03/22 07:44:05;;;;;;;42.97;26.48;;;;;;;;;;4985922;28;20035;-77
2022/03/22 07:46:31;;;;;;;52.55;28.27;;;;;;;;;;4985846;28;20057;-77
2022/03/22 07:52:57;;;;;;;42.42;26.92;;;;;;;;;;4987367;28;20034;-77
2022/03/22 07:54:28;;;;;;;40.60;25.33;;;;;;;;;;4986362;28;20492;-77
2022/03/22 07:56:54;;;;;;;43.05;25.77;;;;;;;;;;4986619;28;20052;-78
2022/03/22 07:59:20;;;;;;;41.55;25.85;;;;;;;;;;4986097;28;20519;-78
2022/03/22 08:01:47;;;;;;;38.75;25.30;;;;;;;;;;4985938;28;20526;-77
2022/03/22 08:04:13;;;;;;;39.85;24.90;;;;;;;;;;5044430;28;20052;-77
2022/03/22 08:06:39;;;;;;;45.20;26.52;;;;;;;;;;5090378;28;20544;-77
2022/03/22 08:09:06;;;;;;;42.58;26.63;;;;;;;;;;5075968;28;20028;-77
2022/03/22 08:11:32;;;;;;;43.33;26.27;;;;;;;;;;5088149;28;20044;-78
2022/03/22 08:13:59;;;;;;;39.10;25.83;;;;;;;;;;5092895;28;20036;-77
2022/03/22 08:16:29;;;;;;;40.95;25.70;;;;;;;;;;5075490;28;20083;-77
2022/03/22 08:18:55;;;;;;;39.03;25.35;;;;;;;;;;5093548;28;20047;-77
2022/03/22 08:21:22;;;;;;;38.67;26.92;;;;;;;;;;5093559;28;20035;-76
2022/03/22 08:23:48;;;;;;;39.85;24.75;;;;;;;;;;5087974;28;20671;-78
2022/03/22 08:26:14;;;;;;;37.92;25.38;;;;;;;;;;5091348;28;20044;-77
2022/03/22 08:28:43;;;;;;;40.80;25.55;;;;;;;;;;5092196;28;20135;-77
2022/03/22 08:31:13;;;;;;;40.63;25.48;;;;;;;;;;5056322;28;20044;-77
2022/03/22 08:33:39;;;;;;;39.85;25.83;;;;;;;;;;5072430;28;20044;-77
2022/03/22 08:36:05;;;;;;;37.88;25.90;;;;;;;;;;5089018;28;20390;-77
2022/03/22 08:38:31;;;;;;;38.47;25.45;;;;;;;;;;5074402;28;20393;-77
2022/03/22 08:40:58;;;;;;;41.30;25.60;;;;;;;;;;5090075;28;20500;-77
2022/03/22 08:43:28;;;;;;;35.88;24.13;;;;;;;;;;5090123;28;20393;-77
2022/03/22 08:45:57;;;;;;;38.55;24.55;;;;;;;;;;5091176;28;20071;-78
2022/03/22 08:48:24;;;;;;;35.58;24.65;;;;;;;;;;5088845;28;20428;-77
2022/03/22 08:50:51;;;;;;;35.50;24.48;;;;;;;;;;5088696;28;20047;-77
2022/03/22 08:53:17;;;;;;;35.88;24.77;;;;;;;;;;5088273;28;20321;-77
2022/03/22 08:55:44;;;;;;;36.28;25.75;;;;;;;;;;5085986;28;20045;-77
2022/03/22 08:58:10;;;;;;;34.47;24.73;;;;;;;;;;5091229;28;20039;-77
2022/03/22 09:00:37;;;;;;;36.00;24.65;;;;;;;;;;5089178;28;20551;-78
2022/03/22 09:03:04;;;;;;;36.38;25.63;;;;;;;;;;5087461;28;20135;-78
2022/03/22 09:08:15;;;;;;;31.15;22.77;;;;;;;;;;5029107;28;20057;-78
2022/03/22 09:10:41;;;;;;;34.60;23.42;;;;;;;;;;5011280;28;20064;-77
2022/03/22 09:13:08;;;;;;;35.08;23.63;;;;;;;;;;5010786;28;20405;-77
2022/03/22 09:15:36;;;;;;;35.75;23.80;;;;;;;;;;5028957;28;20057;-75
2022/03/22 09:18:03;;;;;;;28.73;22.42;;;;;;;;;;5028611;28;20463;-75
2022/03/22 09:20:33;;;;;;;35.75;24.42;;;;;;;;;;4995346;28;20580;-75
2022/03/22 09:23:00;;;;;;;36.47;23.92;;;;;;;;;;5011022;28;20072;-75
2022/03/22 09:25:27;;;;;;;31.48;22.23;;;;;;;;;;5028762;28;20113;-75
2022/03/22 09:27:54;;;;;;;30.92;21.38;;;;;;;;;;5010851;28;20041;-75
2022/03/22 09:30:20;;;;;;;28.30;22.25;;;;;;;;;;5011493;28;20043;-75
2022/03/22 09:32:47;;;;;;;29.48;22.48;;;;;;;;;;5010532;28;20041;-75
2022/03/22 09:35:17;;;;;;;28.95;22.45;;;;;;;;;;5029021;28;20041;-75
2022/03/22 09:37:43;;;;;;;29.00;21.70;;;;;;;;;;5011706;28;20108;-76
2022/03/22 09:40:10;;;;;;;28.55;21.88;;;;;;;;;;5028998;28;20542;-77
2022/03/22 09:42:42;;;;;;;30.75;22.63;;;;;;;;;;5010580;28;20129;-77
2022/03/22 09:45:09;;;;;;;28.90;22.15;;;;;;;;;;5010935;28;20037;-78
2022/03/22 09:47:36;;;;;;;30.90;21.77;;;;;;;;;;5011193;28;20399;-77
2022/03/22 09:50:09;;;;;;;28.92;22.35;;;;;;;;;;5029775;28;20048;-78
2022/03/22 09:52:36;;;;;;;30.40;21.63;;;;;;;;;;5021344;28;20041;-78
2022/03/22 09:55:02;;;;;;;30.75;21.23;;;;;;;;;;5011081;28;20025;-78
2022/03/22 09:57:28;;;;;;;27.23;20.83;;;;;;;;;;5011307;28;20045;-77
2022/03/22 09:59:54;;;;;;;27.95;21.33;;;;;;;;;;5029345;28;20089;-76
2022/03/22 10:02:27;;;;;;;28.75;21.00;;;;;;;;;;5028663;28;20613;-76
2022/03/22 10:04:54;;;;;;;27.42;20.83;;;;;;;;;;4994168;28;20060;-76
2022/03/22 10:07:20;;;;;;;26.17;21.35;;;;;;;;;;4994706;28;20037;-77
2022/03/22 10:10:02;;;;;;;26.35;20.92;;;;;;;;;;4994928;28;20048;-76
2022/03/22 10:12:28;;;;;;;27.35;21.00;;;;;;;;;;4994304;28;20073;-77
2022/03/22 10:14:54;;;;;;;24.45;20.23;;;;;;;;;;5028742;28;20486;-78
2022/03/22 10:17:20;;;;;;;26.20;19.88;;;;;;;;;;5010363;28;20482;-75
2022/03/22 10:19:50;;;;;;;28.67;20.38;;;;;;;;;;5010175;28;20129;-77
2022/03/22 10:22:17;;;;;;;27.55;22.17;;;;;;;;;;5010419;28;20049;-76
2022/03/22 10:24:48;;;;;;;27.10;19.90;;;;;;;;;;4993552;28;20074;-75
2022/03/22 10:27:20;;;;;;;24.83;19.70;;;;;;;;;;5027602;28;20049;-76
2022/03/22 10:29:46;;;;;;;24.30;19.58;;;;;;;;;;5009832;28;20070;-76
2022/03/22 10:32:12;;;;;;;23.10;19.30;;;;;;;;;;5010189;28;20455;-76
2022/03/22 10:34:38;;;;;;;26.52;20.05;;;;;;;;;;5009983;28;20046;-76
2022/03/22 10:37:05;;;;;;;24.73;20.05;;;;;;;;;;4993786;28;20398;-76
2022/03/22 10:39:34;;;;;;;23.15;17.73;;;;;;;;;;5010404;28;20048;-77
2022/03/22 10:42:08;;;;;;;26.27;19.35;;;;;;;;;;5009137;28;20066;-76
2022/03/22 10:44:38;;;;;;;22.63;18.58;;;;;;;;;;5010034;28;20053;-76
2022/03/22 10:47:07;;;;;;;24.65;17.55;;;;;;;;;;5027853;28;20080;-76
2022/03/22 10:49:34;;;;;;;22.05;16.20;;;;;;;;;;5009989;28;20498;-78
2022/03/22 10:52:00;;;;;;;23.40;15.90;;;;;;;;;;5018754;28;20038;-77
2022/03/22 10:54:26;;;;;;;20.02;15.70;;;;;;;;;;5027420;28;20436;-76
2022/03/22 10:56:55;;;;;;;23.02;16.67;;;;;;;;;;5009693;28;20080;-75
2022/03/22 10:59:23;;;;;;;23.90;16.88;;;;;;;;;;5010221;28;20144;-75
2022/03/22 11:01:50;;;;;;;21.33;16.20;;;;;;;;;;5009049;28;20124;-77
2022/03/22 11:04:17;;;;;;;24.27;16.95;;;;;;;;;;5051826;28;20052;-76
2022/03/22 11:06:46;;;;;;;24.05;17.13;;;;;;;;;;5086667;28;20079;-78
2022/03/22 11:09:16;;;;;;;21.67;15.85;;;;;;;;;;5083995;28;20046;-78
2022/03/22 11:11:43;;;;;;;21.33;17.17;;;;;;;;;;5087284;28;20078;-77
2022/03/22 11:14:11;;;;;;;20.13;16.65;;;;;;;;;;5081797;28;20115;-78
2022/03/22 11:16:38;;;;;;;21.30;14.77;;;;;;;;;;5071618;28;20124;-78
2022/03/22 11:19:05;;;;;;;20.92;15.80;;;;;;;;;;5088317;28;20076;-75
2022/03/22 11:21:31;;;;;;;23.38;16.30;;;;;;;;;;5081091;28;20040;-78
2022/03/22 11:24:08;;;;;;;23.60;16.08;;;;;;;;;;5087398;28;20119;-76
2022/03/22 11:26:40;;;;;;;23.60;16.45;;;;;;;;;;5086084;28;20044;-76
2022/03/22 11:29:07;;;;;;;20.13;16.27;;;;;;;;;;5070387;28;20039;-76
2022/03/22 11:31:34;;;;;;;20.88;14.75;;;;;;;;;;5070358;28;20036;-76
2022/03/22 11:34:09;;;;;;;22.75;14.38;;;;;;;;;;5086156;28;20040;-76
2022/03/22 11:36:40;;;;;;;19.48;14.45;;;;;;;;;;5084314;28;20052;-76
2022/03/22 11:39:06;;;;;;;21.05;14.77;;;;;;;;;;5090316;28;20036;-75
2022/03/22 11:44:36;;;;;;;21.30;14.70;;;;;;;;;;5093826;28;20032;-75
2022/03/22 11:47:32;;;;;;;20.23;14.90;;;;;;;;;;5090974;28;20501;-75
2022/03/22 11:49:58;;;;;;;24.58;15.68;;;;;;;;;;5082011;28;20052;-75
2022/03/22 11:52:25;;;;;;;21.63;15.98;;;;;;;;;;5090327;28;20062;-75
2022/03/22 11:54:55;;;;;;;24.10;16.30;;;;;;;;;;5089075;28;20044;-75
2022/03/22 11:57:21;;;;;;;23.30;17.08;;;;;;;;;;5090748;28;20039;-77
2022/03/22 11:59:48;;;;;;;21.63;16.52;;;;;;;;;;5091516;28;20044;-75
2022/03/22 12:02:15;;;;;;;23.65;15.50;;;;;;;;;;5090978;28;20036;-77
2022/03/22 12:04:41;;;;;;;22.45;17.25;;;;;;;;;;5044143;28;20164;-76
2022/03/22 12:07:08;;;;;;;21.35;15.15;;;;;;;;;;5011839;28;20052;-76
2022/03/22 12:09:38;;;;;;;23.30;15.15;;;;;;;;;;5012452;28;20406;-76
2022/03/22 12:12:06;;;;;;;21.63;14.60;;;;;;;;;;5012021;28;20045;-76
2022/03/22 12:14:35;;;;;;;20.63;14.27;;;;;;;;;;5012258;28;20053;-76
2022/03/22 12:17:01;;;;;;;21.58;14.80;;;;;;;;;;4995304;28;20057;-77
2022/03/22 12:19:28;;;;;;;23.92;15.75;;;;;;;;;;5029622;28;20033;-76
2022/03/22 12:21:55;;;;;;;24.15;15.35;;;;;;;;;;5011652;28;20052;-77
2022/03/22 12:24:22;;;;;;;25.33;16.20;;;;;;;;;;5011757;28;20033;-77
2022/03/22 12:26:49;;;;;;;25.25;15.68;;;;;;;;;;4995267;28;20045;-77
2022/03/22 12:29:15;;;;;;;22.30;16.17;;;;;;;;;;5011873;28;20044;-76
2022/03/22 12:31:51;;;;;;;23.75;16.27;;;;;;;;;;5011741;28;20509;-76
2022/03/22 12:34:17;;;;;;;23.83;16.48;;;;;;;;;;5029281;28;20044;-77
2022/03/22 12:36:44;;;;;;;24.52;16.13;;;;;;;;;;5011314;28;20137;-77
2022/03/22 12:39:11;;;;;;;22.77;16.25;;;;;;;;;;5028863;28;20502;-77
2022/03/22 12:41:37;;;;;;;25.33;16.40;;;;;;;;;;5011489;28;20049;-76
2022/03/22 12:44:04;;;;;;;27.02;16.77;;;;;;;;;;5020645;28;20073;-76
2022/03/22 12:46:31;;;;;;;27.75;17.10;;;;;;;;;;5011849;28;20462;-77
2022/03/22 12:48:58;;;;;;;25.90;17.20;;;;;;;;;;5028267;28;20037;-77
2022/03/22 12:51:25;;;;;;;27.30;17.63;;;;;;;;;;5011150;28;20052;-76
2022/03/22 12:53:54;;;;;;;23.63;15.70;;;;;;;;;;5010843;28;20041;-75
2022/03/22 12:56:21;;;;;;;25.90;17.13;;;;;;;;;;5011184;28;20660;-74
2022/03/22 12:58:49;;;;;;;26.35;16.08;;;;;;;;;;5011316;28;20514;-74
2022/03/22 13:01:15;;;;;;;23.98;16.65;;;;;;;;;;5011083;28;20046;-74
2022/03/22 13:03:42;;;;;;;24.23;16.75;;;;;;;;;;4994512;28;20088;-74
2022/03/22 13:06:08;;;;;;;24.10;15.88;;;;;;;;;;5010517;28;20048;-75
2022/03/22 13:11:29;;;;;;;23.40;14.90;;;;;;;;;;5010674;28;20041;-75
2022/03/22 13:16:51;;;;;;;25.42;16.15;;;;;;;;;;5009392;28;20041;-76
2022/03/22 13:19:18;;;;;;;23.70;16.67;;;;;;;;;;5028569;28;20041;-77
2022/03/22 13:21:44;;;;;;;26.08;17.33;;;;;;;;;;5010834;28;20120;-75
2022/03/22 13:24:12;;;;;;;27.08;16.40;;;;;;;;;;5010219;28;20037;-75
2022/03/22 13:26:39;;;;;;;27.23;16.67;;;;;;;;;;5010909;28;20134;-75
2022/03/22 13:29:16;;;;;;;26.88;16.00;;;;;;;;;;5028176;28;20040;-75
2022/03/22 13:32:01;;;;;;;30.17;16.40;;;;;;;;;;5010432;28;20049;-74
2022/03/22 13:34:28;;;;;;;26.17;15.95;;;;;;;;;;5028498;28;20109;-75
2022/03/22 13:37:13;;;;;;;24.27;16.40;;;;;;;;;;5010084;28;20041;-75
2022/03/22 13:39:42;;;;;;;27.48;17.42;;;;;;;;;;4994390;28;20041;-75
2022/03/22 13:42:08;;;;;;;28.05;17.25;;;;;;;;;;4993872;28;20036;-73
2022/03/22 13:44:34;;;;;;;28.92;17.40;;;;;;;;;;5028094;28;20041;-74
2022/03/22 13:47:00;;;;;;;29.05;17.58;;;;;;;;;;5010303;28;20037;-73
2022/03/22 13:49:36;;;;;;;27.38;16.45;;;;;;;;;;5010519;28;20067;-74
2022/03/22 13:52:02;;;;;;;;;;;;;;;;;;4994340;28;20462;-74
2022/03/22 13:54:28;;;;;;;;;;;;;;;;;;5010571;28;19971;-74
2022/03/22 13:57:07;;;;;;;26.35;16.52;;;;;;;;;;5027632;28;19925;-74
2022/03/22 13:59:40;;;;;;;29.02;16.40;;;;;;;;;;4994011;28;20038;-74
2022/03/22 14:02:07;;;;;;;29.30;17.80;;;;;;;;;;5010326;28;20037;-75
2022/03/22 14:04:34;;;;;;;26.38;16.95;;;;;;;;;;5039473;28;20048;-74
2022/03/22 14:07:01;;;;;;;27.63;17.27;;;;;;;;;;5087150;28;20051;-74
2022/03/22 14:09:27;;;;;;;32.30;17.35;;;;;;;;;;5086634;28;20092;-74
2022/03/22 14:11:53;;;;;;;30.35;16.95;;;;;;;;;;5086894;28;20047;-74
2022/03/22 14:14:20;;;;;;;25.05;16.40;;;;;;;;;;5088418;28;20126;-74
2022/03/22 14:16:46;;;;;;;27.40;16.55;;;;;;;;;;5088210;28;20044;-75
2022/03/22 14:19:15;;;;;;;28.48;17.20;;;;;;;;;;5088414;28;20047;-74
2022/03/22 14:21:41;;;;;;;26.75;17.00;;;;;;;;;;5076013;28;20569;-74
2022/03/22 14:24:07;;;;;;;31.00;17.25;;;;;;;;;;5055500;28;20051;-74
2022/03/22 14:26:33;;;;;;;29.27;17.10;;;;;;;;;;5088787;28;20519;-73
2022/03/22 14:29:00;;;;;;;32.55;17.45;;;;;;;;;;5081521;28;20115;-74
2022/03/22 14:31:26;;;;;;;26.00;15.30;;;;;;;;;;5088379;28;20044;-73
2022/03/22 14:33:52;;;;;;;28.75;15.02;;;;;;;;;;5071013;28;20036;-74
2022/03/22 14:36:18;;;;;;;21.27;12.73;;;;;;;;;;5089858;28;20082;-74
2022/03/22 14:38:44;;;;;;;29.67;14.23;;;;;;;;;;5088333;28;20496;-75
2022/03/22 14:41:25;;;;;;;25.17;15.77;;;;;;;;;;5072180;28;20062;-75
2022/03/22 14:43:55;;;;;;;24.58;14.80;;;;;;;;;;5087991;28;20062;-74
2022/03/22 14:46:22;;;;;;;25.73;15.50;;;;;;;;;;5087086;28;20047;-74
2022/03/22 14:48:53;;;;;;;23.33;13.55;;;;;;;;;;5088623;28;20043;-74
2022/03/22 14:54:05;;;;;;;21.55;11.77;;;;;;;;;;5086495;28;20048;-74